Enter the Airport ICAO Code

Search by Airport or City

Current Weather

MMMY | General Mariano Escobedo International Airport

Monterrey, Nuevo León, Mexico

Last Update 1 Hour Ago

Clear Sky

Temperature of 22 ºC

Calm Wind

Temperature

22 ºC

Dew Point Temperature

20 ºC

Relative Humidity

88.5 %

Wind Direction

None

Wind Velocity

0 km/h (0 kt)

Gusts

None

Visibility

Greater than 10 Miles

Sea Level Pressure

29.88 inHg (Inches of Mercury)

Layers of Clouds

None

METAR MMMY 191040Z 00000KT 10SM SKC 22/20 A2988

Weather Forecast

MMMY | General Mariano Escobedo International Airport

Monterrey, Nuevo León, Mexico

Forecast valid for the next 30 Hours

From now on it is expected:

Mostly Cloudy Sky

Light to Moderate Winds from East

In 4 hours it is expected the begining of:

Moderate Winds from SouthEast

Maximum Temperature

34 ºC in 9 Hours

Minimum Temperature

21 ºC in 0 Hours

TAF MMMY 191127Z 1912/2018 08005KT P6SM SCT030 BKN200 TX34/1921Z TN21/1912Z FM191600 12010KT P6SM SCT080 BKN200 FM200200 12010KT P6SM SCT020 BKN200 TEMPO 2010/2014 BKN012 FM201600 12010KT P6SM SCT020 BKN250